Time;durP1;ratioP1;P1;durP2;ratioP2;P2;SDS_P1;SDS_P2;PMS_P1;PMS_P2;Temp;Humidity;BMP_temperature;BMP_pressure;BME280_temperature;BME280_humidity;BME280_pressure;Samples;Min_cycle;Max_cycle;Signal;HPM_P1;HPM_P2
2022/07/19 00:00:20;;;;;;;7.93;3.08;;;;;;;;;;5041161;28;20119;-83
2022/07/19 00:02:46;;;;;;;3.40;2.85;;;;;;;;;;5046172;28;20489;-83
2022/07/19 00:05:12;;;;;;;3.40;3.10;;;;;;;;;;5044043;28;20026;-84
2022/07/19 00:07:38;;;;;;;4.65;3.63;;;;;;;;;;5049878;28;20024;-84
2022/07/19 00:10:06;;;;;;;4.72;4.03;;;;;;;;;;5045206;28;20029;-84
2022/07/19 00:12:31;;;;;;;5.10;3.83;;;;;;;;;;5041860;28;20039;-86
2022/07/19 00:14:57;;;;;;;5.88;4.15;;;;;;;;;;5044686;28;20029;-83
2022/07/19 00:17:22;;;;;;;3.97;3.58;;;;;;;;;;5044887;28;20033;-83
2022/07/19 00:19:48;;;;;;;4.82;3.88;;;;;;;;;;5048972;28;20037;-84
2022/07/19 00:22:13;;;;;;;4.50;3.92;;;;;;;;;;5043719;28;20032;-84
2022/07/19 00:24:39;;;;;;;8.68;4.60;;;;;;;;;;5045152;28;20112;-85
2022/07/19 00:27:04;;;;;;;4.95;4.22;;;;;;;;;;5049079;28;20076;-83
2022/07/19 00:29:29;;;;;;;4.47;4.07;;;;;;;;;;5045008;28;20055;-84
2022/07/19 00:31:55;;;;;;;5.95;4.85;;;;;;;;;;5050448;28;20515;-84
2022/07/19 00:34:20;;;;;;;7.57;5.72;;;;;;;;;;5043333;28;20044;-85
2022/07/19 00:36:46;;;;;;;5.55;4.90;;;;;;;;;;5045499;28;20477;-85
2022/07/19 00:39:11;;;;;;;5.22;3.90;;;;;;;;;;5051272;28;20047;-84
2022/07/19 00:41:41;;;;;;;4.20;3.80;;;;;;;;;;5045976;28;20036;-84
2022/07/19 00:44:07;;;;;;;5.25;4.18;;;;;;;;;;5047058;28;20108;-85
2022/07/19 00:46:33;;;;;;;4.10;3.70;;;;;;;;;;5040522;28;20067;-83
2022/07/19 00:48:58;;;;;;;4.38;3.58;;;;;;;;;;5042474;28;20052;-85
2022/07/19 00:51:24;;;;;;;5.20;3.70;;;;;;;;;;5051074;28;20056;-84
2022/07/19 00:53:50;;;;;;;3.72;3.20;;;;;;;;;;5040616;28;20086;-85
2022/07/19 00:56:17;;;;;;;4.38;3.78;;;;;;;;;;5046916;28;20041;-85
2022/07/19 00:58:42;;;;;;;3.97;3.50;;;;;;;;;;5039233;28;20040;-84
2022/07/19 01:01:09;;;;;;;5.32;3.40;;;;;;;;;;5044566;28;20028;-85
2022/07/19 01:03:36;;;;;;;4.07;2.90;;;;;;;;;;5047367;28;20087;-86
2022/07/19 01:06:02;;;;;;;5.50;3.35;;;;;;;;;;5050207;28;20033;-86
2022/07/19 01:08:28;;;;;;;3.13;2.83;;;;;;;;;;5045092;28;20393;-87
2022/07/19 01:10:54;;;;;;;5.00;3.45;;;;;;;;;;5039789;28;20025;-86
2022/07/19 01:13:19;;;;;;;4.45;3.00;;;;;;;;;;5044931;28;20029;-83
2022/07/19 01:15:45;;;;;;;4.35;3.25;;;;;;;;;;5042977;28;20033;-85
2022/07/19 01:18:10;;;;;;;3.50;2.95;;;;;;;;;;5047372;28;20029;-84
2022/07/19 01:20:36;;;;;;;5.22;3.70;;;;;;;;;;5043145;28;20494;-84
2022/07/19 01:23:02;;;;;;;3.88;3.35;;;;;;;;;;5043920;28;20100;-86
2022/07/19 01:25:31;;;;;;;5.38;3.15;;;;;;;;;;5047312;28;20040;-84
2022/07/19 01:27:57;;;;;;;4.82;3.03;;;;;;;;;;5049497;28;20099;-84
2022/07/19 01:30:24;;;;;;;6.78;3.40;;;;;;;;;;5039263;28;20033;-87
2022/07/19 01:32:51;;;;;;;5.82;3.22;;;;;;;;;;5045584;28;20068;-84
2022/07/19 01:35:17;;;;;;;4.40;3.00;;;;;;;;;;5042447;28;20024;-83
2022/07/19 01:37:43;;;;;;;4.38;3.03;;;;;;;;;;5050630;28;20024;-84
2022/07/19 01:40:11;;;;;;;3.47;3.17;;;;;;;;;;5040607;28;20033;-83
2022/07/19 01:42:37;;;;;;;3.88;3.30;;;;;;;;;;5038023;28;20033;-86
2022/07/19 01:45:04;;;;;;;3.33;3.03;;;;;;;;;;5042171;28;20432;-83
2022/07/19 01:47:30;;;;;;;4.88;3.35;;;;;;;;;;5039633;28;20013;-84
2022/07/19 01:49:55;;;;;;;6.15;3.17;;;;;;;;;;5041266;28;20040;-86
2022/07/19 01:52:20;;;;;;;3.83;2.97;;;;;;;;;;5044995;28;20032;-84
2022/07/19 01:54:46;;;;;;;7.32;3.40;;;;;;;;;;5046432;28;20029;-84
2022/07/19 01:57:11;;;;;;;3.95;3.30;;;;;;;;;;5037762;28;20070;-84
2022/07/19 01:59:37;;;;;;;5.53;3.40;;;;;;;;;;5042392;28;20111;-83
2022/07/19 02:02:03;;;;;;;4.18;3.03;;;;;;;;;;5045100;28;20051;-84
2022/07/19 02:04:29;;;;;;;5.03;3.50;;;;;;;;;;5046152;28;20024;-85
2022/07/19 02:06:54;;;;;;;4.25;3.38;;;;;;;;;;5043277;28;20028;-84
2022/07/19 02:09:20;;;;;;;4.45;3.30;;;;;;;;;;5044343;28;20393;-85
2022/07/19 02:11:45;;;;;;;4.35;3.50;;;;;;;;;;5040742;28;20474;-83
2022/07/19 02:14:11;;;;;;;4.15;2.78;;;;;;;;;;5039814;28;20053;-84
2022/07/19 02:16:37;;;;;;;4.15;2.97;;;;;;;;;;5043808;28;20354;-84
2022/07/19 02:19:04;;;;;;;3.67;3.03;;;;;;;;;;5042881;28;20044;-87
2022/07/19 02:21:30;;;;;;;3.90;2.90;;;;;;;;;;5041954;28;20468;-82
2022/07/19 02:23:55;;;;;;;5.75;3.70;;;;;;;;;;5047141;28;20029;-83
2022/07/19 02:26:21;;;;;;;8.75;3.60;;;;;;;;;;5039574;28;20044;-84
2022/07/19 02:28:46;;;;;;;7.03;3.63;;;;;;;;;;5043235;28;20021;-85
2022/07/19 02:31:12;;;;;;;4.20;3.60;;;;;;;;;;5046107;28;20055;-84
2022/07/19 02:33:37;;;;;;;4.93;3.70;;;;;;;;;;5041307;28;20050;-86
2022/07/19 02:36:04;;;;;;;7.53;4.20;;;;;;;;;;5043215;28;20075;-84
2022/07/19 02:38:30;;;;;;;4.93;4.43;;;;;;;;;;5044627;28;20130;-83
2022/07/19 02:40:55;;;;;;;3.90;3.17;;;;;;;;;;5040192;28;20109;-84
2022/07/19 02:43:21;;;;;;;4.47;2.33;;;;;;;;;;5044379;28;20056;-85
2022/07/19 02:45:46;;;;;;;3.35;2.35;;;;;;;;;;5047703;28;20029;-85
2022/07/19 02:48:11;;;;;;;2.10;1.90;;;;;;;;;;5042209;28;20389;-83
2022/07/19 02:50:37;;;;;;;3.53;2.20;;;;;;;;;;5035832;28;20033;-84
2022/07/19 02:53:02;;;;;;;3.10;2.00;;;;;;;;;;5049241;28;20024;-85
2022/07/19 02:55:28;;;;;;;2.25;1.88;;;;;;;;;;5043155;28;20029;-84
2022/07/19 02:57:53;;;;;;;3.28;2.47;;;;;;;;;;5040072;28;20027;-85
2022/07/19 03:00:19;;;;;;;3.30;2.55;;;;;;;;;;5042692;28;20062;-86
2022/07/19 03:02:44;;;;;;;3.13;2.10;;;;;;;;;;5046857;28;20032;-86
2022/07/19 03:05:10;;;;;;;3.83;2.03;;;;;;;;;;5040074;28;20061;-84
2022/07/19 03:07:35;;;;;;;3.05;2.25;;;;;;;;;;5039729;28;20034;-84
2022/07/19 03:10:01;;;;;;;2.80;2.30;;;;;;;;;;5042010;28;20068;-87
2022/07/19 03:12:26;;;;;;;2.58;2.10;;;;;;;;;;5043330;28;20038;-84
2022/07/19 03:14:52;;;;;;;3.63;2.35;;;;;;;;;;5041391;28;20083;-84
2022/07/19 03:17:17;;;;;;;2.72;2.05;;;;;;;;;;5030560;28;20021;-85
2022/07/19 03:19:42;;;;;;;3.00;2.35;;;;;;;;;;5036506;28;20042;-85
2022/07/19 03:22:08;;;;;;;5.38;2.20;;;;;;;;;;5040802;28;20056;-84
2022/07/19 03:24:33;;;;;;;2.88;2.20;;;;;;;;;;5040237;28;20476;-83
2022/07/19 03:26:59;;;;;;;4.97;3.13;;;;;;;;;;5041987;28;20033;-87
2022/07/19 03:29:24;;;;;;;3.55;2.60;;;;;;;;;;5041008;28;20087;-86
2022/07/19 03:31:50;;;;;;;3.38;2.53;;;;;;;;;;5041784;28;20116;-83
2022/07/19 03:34:15;;;;;;;3.22;2.10;;;;;;;;;;5039642;28;20029;-87
2022/07/19 03:36:41;;;;;;;3.25;2.55;;;;;;;;;;5046226;28;20166;-86
2022/07/19 03:39:06;;;;;;;4.20;3.35;;;;;;;;;;5046507;28;20029;-83
2022/07/19 03:41:32;;;;;;;4.68;3.45;;;;;;;;;;5039449;28;20484;-84
2022/07/19 03:43:57;;;;;;;4.50;3.63;;;;;;;;;;5043347;28;20033;-84
2022/07/19 03:46:23;;;;;;;6.55;3.55;;;;;;;;;;5035808;28;20026;-84
2022/07/19 03:48:49;;;;;;;3.65;3.15;;;;;;;;;;5039830;28;20030;-85
2022/07/19 03:51:14;;;;;;;4.50;3.85;;;;;;;;;;5039063;28;20037;-84
2022/07/19 03:53:40;;;;;;;3.90;3.42;;;;;;;;;;5042198;28;20032;-84
2022/07/19 03:56:06;;;;;;;3.33;3.00;;;;;;;;;;5040552;28;20029;-86
2022/07/19 03:58:31;;;;;;;4.00;3.22;;;;;;;;;;5050452;28;20029;-83
2022/07/19 04:00:57;;;;;;;3.28;2.83;;;;;;;;;;5038151;28;20026;-84
2022/07/19 04:03:22;;;;;;;3.63;3.15;;;;;;;;;;5040677;28;20056;-83
2022/07/19 04:05:48;;;;;;;3.78;3.40;;;;;;;;;;5047367;28;20389;-86
2022/07/19 04:08:14;;;;;;;3.20;2.42;;;;;;;;;;5040946;28;20044;-84
2022/07/19 04:10:40;;;;;;;2.22;1.92;;;;;;;;;;5041666;28;20026;-84
2022/07/19 04:13:06;;;;;;;2.97;2.05;;;;;;;;;;5046661;28;20108;-82
2022/07/19 04:15:32;;;;;;;3.10;2.42;;;;;;;;;;5049728;28;20168;-85
2022/07/19 04:17:57;;;;;;;4.13;3.10;;;;;;;;;;5045376;28;20492;-85
2022/07/19 04:20:23;;;;;;;3.75;2.30;;;;;;;;;;5051639;28;20052;-86
2022/07/19 04:22:51;;;;;;;2.50;1.98;;;;;;;;;;5042599;28;20025;-85
2022/07/19 04:25:16;;;;;;;3.28;2.38;;;;;;;;;;5048438;28;20025;-85
2022/07/19 04:27:43;;;;;;;3.58;2.22;;;;;;;;;;5040696;28;20029;-85
2022/07/19 04:30:08;;;;;;;3.10;2.42;;;;;;;;;;5052612;28;20112;-85
2022/07/19 04:32:34;;;;;;;3.97;2.47;;;;;;;;;;5044228;28;20112;-85
2022/07/19 04:35:00;;;;;;;5.90;2.63;;;;;;;;;;5043514;28;20026;-85
2022/07/19 04:37:26;;;;;;;5.80;2.67;;;;;;;;;;5043225;28;20031;-85
2022/07/19 04:39:51;;;;;;;4.70;2.20;;;;;;;;;;5047494;28;20029;-87
2022/07/19 04:42:17;;;;;;;4.57;2.90;;;;;;;;;;5048342;28;20033;-83
2022/07/19 04:44:42;;;;;;;8.75;2.40;;;;;;;;;;5039341;28;20029;-86
2022/07/19 04:47:08;;;;;;;2.67;2.20;;;;;;;;;;5045770;28;20496;-88
2022/07/19 04:49:33;;;;;;;3.65;2.25;;;;;;;;;;5046047;28;20037;-86
2022/07/19 04:51:59;;;;;;;4.43;2.28;;;;;;;;;;5039540;28;20031;-87
2022/07/19 04:54:25;;;;;;;4.95;2.38;;;;;;;;;;5046850;28;20047;-84
2022/07/19 04:56:50;;;;;;;3.45;2.20;;;;;;;;;;5044876;28;20021;-85
2022/07/19 04:59:15;;;;;;;2.58;2.22;;;;;;;;;;5049509;28;20475;-84
2022/07/19 05:01:41;;;;;;;2.92;2.58;;;;;;;;;;5044971;28;20029;-84
2022/07/19 05:04:07;;;;;;;3.13;2.33;;;;;;;;;;5042112;28;20393;-84
2022/07/19 05:06:32;;;;;;;3.63;2.40;;;;;;;;;;5049086;28;20117;-84
2022/07/19 05:09:04;;;;;;;3.58;2.40;;;;;;;;;;5042218;28;20032;-86
2022/07/19 05:11:29;;;;;;;3.33;2.22;;;;;;;;;;5043013;28;20472;-84
2022/07/19 05:13:55;;;;;;;3.53;2.40;;;;;;;;;;5042799;28;20024;-85
2022/07/19 05:16:20;;;;;;;3.40;1.98;;;;;;;;;;5044321;28;20021;-85
2022/07/19 05:18:46;;;;;;;2.88;1.80;;;;;;;;;;5040312;28;20033;-82
2022/07/19 05:21:11;;;;;;;3.45;2.17;;;;;;;;;;5044973;28;20481;-84
2022/07/19 05:23:37;;;;;;;3.08;2.40;;;;;;;;;;5041490;28;20029;-84
2022/07/19 05:26:02;;;;;;;4.10;2.20;;;;;;;;;;5046565;28;20017;-84
2022/07/19 05:28:28;;;;;;;3.15;2.17;;;;;;;;;;5050284;28;20027;-85
2022/07/19 05:30:53;;;;;;;5.68;2.80;;;;;;;;;;5047555;28;20044;-86
2022/07/19 05:33:18;;;;;;;5.20;2.20;;;;;;;;;;5042778;28;20444;-82
2022/07/19 05:35:44;;;;;;;3.17;2.50;;;;;;;;;;5041289;28;20036;-86
2022/07/19 05:38:09;;;;;;;4.50;1.95;;;;;;;;;;5038821;28;20025;-82
2022/07/19 05:40:35;;;;;;;4.15;2.63;;;;;;;;;;5040788;28;20052;-82
2022/07/19 05:43:00;;;;;;;3.50;1.90;;;;;;;;;;5043958;28;20052;-82
2022/07/19 05:45:26;;;;;;;2.70;2.20;;;;;;;;;;5044451;28;20090;-84
2022/07/19 05:47:52;;;;;;;3.00;2.00;;;;;;;;;;5042237;28;20464;-81
2022/07/19 05:50:17;;;;;;;3.67;1.75;;;;;;;;;;5038700;28;21300;-83
2022/07/19 05:52:43;;;;;;;3.28;2.25;;;;;;;;;;5046974;28;20108;-81
2022/07/19 05:55:09;;;;;;;3.65;2.15;;;;;;;;;;5041312;28;20060;-82
2022/07/19 05:57:34;;;;;;;6.78;2.45;;;;;;;;;;5042548;28;20028;-84
2022/07/19 06:00:00;;;;;;;3.00;2.20;;;;;;;;;;5045796;28;20025;-83
2022/07/19 06:02:25;;;;;;;3.22;1.98;;;;;;;;;;5041979;28;20461;-82
2022/07/19 06:04:50;;;;;;;4.40;2.40;;;;;;;;;;5043394;28;20039;-84
2022/07/19 06:07:16;;;;;;;7.13;2.40;;;;;;;;;;5042796;28;20370;-82
2022/07/19 06:09:41;;;;;;;3.80;2.30;;;;;;;;;;5041201;28;20021;-84
2022/07/19 06:12:07;;;;;;;3.03;2.30;;;;;;;;;;5046650;28;20439;-84
2022/07/19 06:14:32;;;;;;;4.97;3.10;;;;;;;;;;5038262;28;20127;-84
2022/07/19 06:16:59;;;;;;;4.95;2.20;;;;;;;;;;5042858;28;20107;-84
2022/07/19 06:19:25;;;;;;;2.97;2.00;;;;;;;;;;5044794;28;20056;-86
2022/07/19 06:21:51;;;;;;;3.00;2.00;;;;;;;;;;5038125;28;20488;-84
2022/07/19 06:24:22;;;;;;;3.47;2.22;;;;;;;;;;5043465;28;20017;-84
2022/07/19 06:26:47;;;;;;;3.30;2.20;;;;;;;;;;5037492;28;20394;-87
2022/07/19 06:29:13;;;;;;;3.85;1.90;;;;;;;;;;5042482;28;20036;-83
2022/07/19 06:31:38;;;;;;;5.80;2.10;;;;;;;;;;5043424;28;20032;-84
2022/07/19 06:34:04;;;;;;;3.65;2.55;;;;;;;;;;5041892;28;20029;-86
2022/07/19 06:36:29;;;;;;;2.70;2.10;;;;;;;;;;5039016;28;20052;-84
2022/07/19 06:38:55;;;;;;;4.07;2.63;;;;;;;;;;5046610;28;20697;-89
2022/07/19 06:41:20;;;;;;;8.82;2.20;;;;;;;;;;5038744;28;20127;-83
2022/07/19 06:43:46;;;;;;;2.95;2.00;;;;;;;;;;5044516;28;20035;-83
2022/07/19 06:46:11;;;;;;;3.65;2.15;;;;;;;;;;5032736;28;20109;-84
2022/07/19 06:48:37;;;;;;;3.47;2.25;;;;;;;;;;5037502;28;20033;-82
2022/07/19 06:51:04;;;;;;;6.40;2.45;;;;;;;;;;5043902;28;20116;-86
2022/07/19 06:53:30;;;;;;;7.00;2.00;;;;;;;;;;5037646;28;20033;-85
2022/07/19 06:55:55;;;;;;;3.45;2.25;;;;;;;;;;5040326;28;20029;-83
2022/07/19 06:58:21;;;;;;;10.93;2.35;;;;;;;;;;5044553;28;20056;-85
2022/07/19 07:00:48;;;;;;;4.15;2.17;;;;;;;;;;5044159;28;20381;-84
2022/07/19 07:03:15;;;;;;;3.90;2.50;;;;;;;;;;5037820;28;20036;-83
2022/07/19 07:05:41;;;;;;;4.40;2.33;;;;;;;;;;5044864;28;20029;-83
2022/07/19 07:08:06;;;;;;;6.15;2.10;;;;;;;;;;5044233;28;20029;-83
2022/07/19 07:10:31;;;;;;;2.88;1.80;;;;;;;;;;5047115;28;20029;-83
2022/07/19 07:12:57;;;;;;;2.20;1.83;;;;;;;;;;5040070;28;20029;-85
2022/07/19 07:15:22;;;;;;;9.20;2.40;;;;;;;;;;5039963;28;20036;-84
2022/07/19 07:17:48;;;;;;;3.38;2.15;;;;;;;;;;5042983;28;20027;-86
2022/07/19 07:20:13;;;;;;;2.20;1.75;;;;;;;;;;5040569;28;20048;-82
2022/07/19 07:22:39;;;;;;;4.10;1.80;;;;;;;;;;5041193;28;20029;-83
2022/07/19 07:25:05;;;;;;;4.22;1.90;;;;;;;;;;5041334;28;20480;-82
2022/07/19 07:27:31;;;;;;;2.38;1.60;;;;;;;;;;5049889;28;20024;-83
2022/07/19 07:29:56;;;;;;;2.97;1.83;;;;;;;;;;5038452;28;20388;-83
2022/07/19 07:32:22;;;;;;;1.73;1.50;;;;;;;;;;5044815;28;20465;-85
2022/07/19 07:34:47;;;;;;;3.15;1.65;;;;;;;;;;5044702;28;20025;-83
2022/07/19 07:37:13;;;;;;;8.68;2.00;;;;;;;;;;5042369;28;20541;-81
2022/07/19 07:39:39;;;;;;;4.47;1.90;;;;;;;;;;5042645;28;20025;-81
2022/07/19 07:42:04;;;;;;;4.45;1.80;;;;;;;;;;5045222;28;20059;-82
2022/07/19 07:44:31;;;;;;;2.25;1.50;;;;;;;;;;5048604;28;20104;-83
2022/07/19 07:46:56;;;;;;;4.68;1.75;;;;;;;;;;5048531;28;20020;-84
2022/07/19 07:49:22;;;;;;;3.20;1.55;;;;;;;;;;5048981;28;20131;-84
2022/07/19 07:51:47;;;;;;;1.90;1.42;;;;;;;;;;5046466;28;20029;-85
2022/07/19 07:54:13;;;;;;;2.75;1.95;;;;;;;;;;5043576;28;20036;-85
2022/07/19 07:56:38;;;;;;;3.28;2.08;;;;;;;;;;5046583;28;20021;-85
2022/07/19 07:59:04;;;;;;;3.50;2.15;;;;;;;;;;5045353;28;20079;-84
2022/07/19 08:01:30;;;;;;;4.78;1.88;;;;;;;;;;5041008;28;20033;-84
2022/07/19 08:03:56;;;;;;;4.57;2.10;;;;;;;;;;5042325;28;20021;-84
2022/07/19 08:06:22;;;;;;;2.50;1.60;;;;;;;;;;5046590;28;20035;-84
2022/07/19 08:08:47;;;;;;;2.85;1.58;;;;;;;;;;5038946;28;20033;-86
2022/07/19 08:11:12;;;;;;;12.18;1.92;;;;;;;;;;5048736;28;20037;-87
2022/07/19 08:13:38;;;;;;;2.17;1.50;;;;;;;;;;5046855;28;20025;-85
2022/07/19 08:16:04;;;;;;;4.60;1.70;;;;;;;;;;5046801;28;20056;-85
2022/07/19 08:18:29;;;;;;;3.20;2.00;;;;;;;;;;5049630;28;20036;-84
2022/07/19 08:20:55;;;;;;;3.05;1.60;;;;;;;;;;5050370;28;20097;-82
2022/07/19 08:23:20;;;;;;;3.53;1.70;;;;;;;;;;5044578;28;20051;-85
2022/07/19 08:25:46;;;;;;;1.95;1.58;;;;;;;;;;5040909;28;20053;-85
2022/07/19 08:28:11;;;;;;;3.38;1.65;;;;;;;;;;5042428;28;20373;-83
2022/07/19 08:30:36;;;;;;;1.85;1.63;;;;;;;;;;5046536;28;20485;-87
2022/07/19 08:33:06;;;;;;;2.60;1.70;;;;;;;;;;5043430;28;20030;-84
2022/07/19 08:35:32;;;;;;;;;;;;;;;;;;5047769;28;20033;-82
2022/07/19 08:37:57;;;;;;;2.65;1.42;;;;;;;;;;5042037;28;19916;-86
2022/07/19 08:40:23;;;;;;;4.80;1.67;;;;;;;;;;5037063;28;20528;-84
2022/07/19 08:42:49;;;;;;;5.25;1.63;;;;;;;;;;5049443;28;20039;-83
2022/07/19 08:45:15;;;;;;;3.38;1.80;;;;;;;;;;5036762;28;20458;-83
2022/07/19 08:47:42;;;;;;;3.38;1.60;;;;;;;;;;5044766;28;20017;-84
2022/07/19 08:50:09;;;;;;;3.05;1.73;;;;;;;;;;5046331;28;20497;-84
2022/07/19 08:52:35;;;;;;;3.88;1.75;;;;;;;;;;5047546;28;20170;-82
2022/07/19 08:55:01;;;;;;;2.28;1.70;;;;;;;;;;5044481;28;20079;-83
2022/07/19 09:00:12;;;;;;;3.65;2.05;;;;;;;;;;5039399;28;20036;-84
2022/07/19 09:02:37;;;;;;;3.58;1.80;;;;;;;;;;5039485;28;20476;-85
2022/07/19 09:05:09;;;;;;;1.73;1.40;;;;;;;;;;5044942;28;20025;-84
2022/07/19 09:07:36;;;;;;;3.40;1.63;;;;;;;;;;5045590;28;20471;-85
2022/07/19 09:10:19;;;;;;;2.35;1.90;;;;;;;;;;5047596;28;20500;-85
2022/07/19 09:13:11;;;;;;;2.78;1.75;;;;;;;;;;5040763;28;20034;-86
2022/07/19 09:15:42;;;;;;;4.00;1.92;;;;;;;;;;5045602;28;20044;-85
2022/07/19 09:18:17;;;;;;;4.50;1.75;;;;;;;;;;5041192;28;20107;-84
2022/07/19 09:20:44;;;;;;;2.83;1.52;;;;;;;;;;5046541;28;20041;-87
2022/07/19 09:23:10;;;;;;;1.98;1.40;;;;;;;;;;5042500;28;20058;-83
2022/07/19 09:25:41;;;;;;;4.93;1.60;;;;;;;;;;5046415;28;20025;-83
2022/07/19 09:28:07;;;;;;;3.35;1.50;;;;;;;;;;5039944;28;20099;-84
2022/07/19 09:30:41;;;;;;;3.35;1.60;;;;;;;;;;5038266;28;20025;-83
2022/07/19 09:33:10;;;;;;;3.03;1.95;;;;;;;;;;5043605;28;20037;-83
2022/07/19 09:35:47;;;;;;;4.32;1.50;;;;;;;;;;5038226;28;20473;-81
2022/07/19 09:38:33;;;;;;;1.90;1.50;;;;;;;;;;5040369;28;20029;-84
2022/07/19 09:41:16;;;;;;;1.83;1.40;;;;;;;;;;5046492;28;20025;-85
2022/07/19 09:43:55;;;;;;;1.92;1.60;;;;;;;;;;5048347;28;20024;-85
2022/07/19 09:46:50;;;;;;;2.65;1.85;;;;;;;;;;5046149;28;20028;-86
2022/07/19 09:49:17;;;;;;;2.30;1.70;;;;;;;;;;5037550;28;20060;-83
2022/07/19 09:51:51;;;;;;;2.42;1.50;;;;;;;;;;5046747;28;20025;-85
2022/07/19 09:54:19;;;;;;;2.20;1.45;;;;;;;;;;5038453;28;20090;-84
2022/07/19 09:56:48;;;;;;;3.85;1.60;;;;;;;;;;5043581;28;20028;-87
2022/07/19 09:59:14;;;;;;;3.80;1.73;;;;;;;;;;5038052;28;20028;-82
2022/07/19 10:01:40;;;;;;;4.57;1.58;;;;;;;;;;5040397;28;20556;-87
2022/07/19 10:04:10;;;;;;;2.13;1.50;;;;;;;;;;5041134;28;20026;-84
2022/07/19 10:06:36;;;;;;;3.70;1.58;;;;;;;;;;5042567;28;20036;-84
2022/07/19 10:09:06;;;;;;;2.75;1.50;;;;;;;;;;5047196;28;20040;-84
2022/07/19 10:11:32;;;;;;;;;;;;;;;;;;5040126;28;20112;-84
2022/07/19 10:13:57;;;;;;;2.50;1.80;;;;;;;;;;5040767;28;20353;-84
2022/07/19 10:16:53;;;;;;;3.10;1.50;;;;;;;;;;5047114;28;20029;-85
2022/07/19 10:19:40;;;;;;;3.25;1.48;;;;;;;;;;5039652;28;20052;-85
2022/07/19 10:22:10;;;;;;;6.43;2.15;;;;;;;;;;5048547;28;20073;-84
2022/07/19 10:24:52;;;;;;;3.40;1.60;;;;;;;;;;5043523;28;20490;-84
2022/07/19 10:27:44;;;;;;;2.15;1.60;;;;;;;;;;5040810;28;20029;-84
2022/07/19 10:30:12;;;;;;;3.63;1.58;;;;;;;;;;5054529;28;20120;-84
2022/07/19 10:32:38;;;;;;;7.47;1.52;;;;;;;;;;5041823;28;20100;-83
2022/07/19 10:35:23;;;;;;;2.75;1.45;;;;;;;;;;5047490;28;20033;-85
2022/07/19 10:38:02;;;;;;;4.70;1.63;;;;;;;;;;5050854;28;20028;-83
2022/07/19 10:40:42;;;;;;;3.20;1.67;;;;;;;;;;5044946;28;20036;-82
2022/07/19 10:43:10;;;;;;;1.73;1.35;;;;;;;;;;5035241;28;20384;-83
2022/07/19 10:45:39;;;;;;;4.85;1.88;;;;;;;;;;5045380;28;20199;-85
2022/07/19 10:48:07;;;;;;;1.90;1.50;;;;;;;;;;5038876;28;20488;-85
2022/07/19 10:50:54;;;;;;;2.28;1.40;;;;;;;;;;5043516;28;20140;-84
2022/07/19 10:53:41;;;;;;;1.90;1.55;;;;;;;;;;5040402;28;20120;-86
2022/07/19 10:56:20;;;;;;;1.80;1.40;;;;;;;;;;5044178;28;20495;-83
2022/07/19 10:58:57;;;;;;;2.38;1.70;;;;;;;;;;5047342;28;20104;-85
2022/07/19 11:01:24;;;;;;;2.67;1.42;;;;;;;;;;5042796;28;20087;-84
2022/07/19 11:03:52;;;;;;;3.83;1.60;;;;;;;;;;5049805;28;20037;-84
2022/07/19 11:06:32;;;;;;;2.25;1.35;;;;;;;;;;5053656;28;20024;-82
2022/07/19 11:08:58;;;;;;;1.98;1.48;;;;;;;;;;5042259;28;20033;-82
2022/07/19 11:11:26;;;;;;;2.60;1.70;;;;;;;;;;5048534;28;20032;-84
2022/07/19 11:13:54;;;;;;;2.97;1.50;;;;;;;;;;5047263;28;20029;-84
2022/07/19 11:16:19;;;;;;;4.15;1.80;;;;;;;;;;5042273;28;20022;-84
2022/07/19 11:18:46;;;;;;;3.72;1.85;;;;;;;;;;5041829;28;20539;-83
2022/07/19 11:21:13;;;;;;;3.97;1.65;;;;;;;;;;5051683;28;20036;-84
2022/07/19 11:23:40;;;;;;;4.07;1.63;;;;;;;;;;5043899;28;20032;-83
2022/07/19 11:26:08;;;;;;;2.78;1.70;;;;;;;;;;5044620;28;20022;-82
2022/07/19 11:28:35;;;;;;;7.03;1.90;;;;;;;;;;5042061;28;20033;-83
2022/07/19 11:31:12;;;;;;;1.98;1.60;;;;;;;;;;5046277;28;20025;-83
2022/07/19 11:33:38;;;;;;;2.00;1.70;;;;;;;;;;5046635;28;20026;-84
2022/07/19 11:36:04;;;;;;;2.83;1.80;;;;;;;;;;5045225;28;20046;-83
2022/07/19 11:38:47;;;;;;;3.40;1.60;;;;;;;;;;5046238;28;20146;-85
2022/07/19 11:41:21;;;;;;;1.90;1.50;;;;;;;;;;5042484;28;20098;-83
2022/07/19 11:44:05;;;;;;;2.38;1.63;;;;;;;;;;5048622;28;20029;-85
2022/07/19 11:46:34;;;;;;;3.83;1.58;;;;;;;;;;5041310;28;20446;-83
2022/07/19 11:49:05;;;;;;;2.85;1.75;;;;;;;;;;5043133;28;20040;-85
2022/07/19 11:51:30;;;;;;;1.50;1.40;;;;;;;;;;5043830;28;20078;-86
2022/07/19 11:53:58;;;;;;;2.40;1.70;;;;;;;;;;5044730;28;20105;-87
2022/07/19 11:56:25;;;;;;;3.33;1.73;;;;;;;;;;5039932;28;20045;-85
2022/07/19 11:58:52;;;;;;;2.33;1.52;;;;;;;;;;5043986;28;20462;-87
2022/07/19 12:01:33;;;;;;;2.90;1.65;;;;;;;;;;5039920;28;20025;-86
2022/07/19 12:04:03;;;;;;;4.70;1.80;;;;;;;;;;5044982;28;20476;-87
2022/07/19 12:06:46;;;;;;;4.53;1.50;;;;;;;;;;5040794;28;20028;-86
2022/07/19 12:09:15;;;;;;;3.83;1.90;;;;;;;;;;5041959;28;20026;-85
2022/07/19 12:11:46;;;;;;;2.00;1.80;;;;;;;;;;5034232;28;20025;-87
2022/07/19 12:14:34;;;;;;;4.85;1.80;;;;;;;;;;5038721;28;20029;-84
2022/07/19 12:17:13;;;;;;;2.65;1.58;;;;;;;;;;5039309;28;20037;-86
2022/07/19 12:19:44;;;;;;;3.45;1.50;;;;;;;;;;5038902;28;20114;-83
2022/07/19 12:22:35;;;;;;;5.20;1.60;;;;;;;;;;5035093;28;20052;-83
2022/07/19 12:25:01;;;;;;;3.13;1.50;;;;;;;;;;5033747;28;20030;-84
2022/07/19 12:27:27;;;;;;;3.75;1.75;;;;;;;;;;5045844;28;20055;-86
2022/07/19 12:29:58;;;;;;;1.88;1.40;;;;;;;;;;5041757;28;20082;-82
2022/07/19 12:32:32;;;;;;;2.17;1.50;;;;;;;;;;5036708;28;20064;-83
2022/07/19 12:35:02;;;;;;;2.60;1.63;;;;;;;;;;5035521;28;20055;-83
2022/07/19 12:37:30;;;;;;;4.22;1.70;;;;;;;;;;5035442;28;20021;-84
2022/07/19 12:40:12;;;;;;;5.88;1.50;;;;;;;;;;5038566;28;20036;-84
2022/07/19 12:42:48;;;;;;;10.63;2.05;;;;;;;;;;5042609;28;20047;-83
2022/07/19 12:45:22;;;;;;;5.65;1.50;;;;;;;;;;5035683;28;20030;-82
2022/07/19 12:47:49;;;;;;;2.30;1.80;;;;;;;;;;5038047;28;20029;-83
2022/07/19 12:50:30;;;;;;;4.45;1.35;;;;;;;;;;5040300;28;20040;-83
2022/07/19 12:52:58;;;;;;;1.77;1.40;;;;;;;;;;5043202;28;20107;-83
2022/07/19 12:55:25;;;;;;;2.88;1.40;;;;;;;;;;5037248;28;20242;-83
2022/07/19 12:57:52;;;;;;;3.03;1.48;;;;;;;;;;5036251;28;20493;-83
2022/07/19 13:00:19;;;;;;;1.75;1.50;;;;;;;;;;5039782;28;20029;-82
2022/07/19 13:02:47;;;;;;;2.63;1.50;;;;;;;;;;5035933;28;20032;-85
2022/07/19 13:05:12;;;;;;;2.38;1.80;;;;;;;;;;5040316;28;20029;-83
2022/07/19 13:07:38;;;;;;;2.78;1.27;;;;;;;;;;5037570;28;20537;-82
2022/07/19 13:10:04;;;;;;;3.63;2.00;;;;;;;;;;5040274;28;20041;-83
2022/07/19 13:12:30;;;;;;;5.10;2.50;;;;;;;;;;5039326;28;20473;-83
2022/07/19 13:14:55;;;;;;;2.90;1.63;;;;;;;;;;5038826;28;20037;-82
2022/07/19 13:17:21;;;;;;;2.40;1.60;;;;;;;;;;5032355;28;21356;-82
2022/07/19 13:19:46;;;;;;;3.97;1.50;;;;;;;;;;5036619;28;20042;-83
2022/07/19 13:22:12;;;;;;;3.03;1.60;;;;;;;;;;5036549;28;20234;-83
2022/07/19 13:24:38;;;;;;;5.18;1.35;;;;;;;;;;5032080;28;20358;-83
2022/07/19 13:27:04;;;;;;;3.78;1.33;;;;;;;;;;5032587;28;20094;-84
2022/07/19 13:29:30;;;;;;;4.15;1.40;;;;;;;;;;5032823;28;20056;-85
2022/07/19 13:31:58;;;;;;;1.42;1.20;;;;;;;;;;5040209;28;20037;-87
2022/07/19 13:34:23;;;;;;;2.65;1.48;;;;;;;;;;5036048;28;20505;-85
2022/07/19 13:36:49;;;;;;;2.13;1.35;;;;;;;;;;5038321;28;20061;-83
2022/07/19 13:39:15;;;;;;;3.80;1.42;;;;;;;;;;5036742;28;20048;-83
2022/07/19 13:41:41;;;;;;;2.55;1.30;;;;;;;;;;5043592;28;20026;-85
2022/07/19 13:44:06;;;;;;;2.83;1.60;;;;;;;;;;5037043;28;20037;-82
2022/07/19 13:46:32;;;;;;;1.77;1.35;;;;;;;;;;5038691;28;20034;-82
2022/07/19 13:48:58;;;;;;;3.17;1.55;;;;;;;;;;5036707;28;20032;-84
2022/07/19 13:51:24;;;;;;;2.97;1.60;;;;;;;;;;5035342;28;20367;-86
2022/07/19 13:53:50;;;;;;;1.55;1.30;;;;;;;;;;5037169;28;20087;-83
2022/07/19 13:56:15;;;;;;;1.45;1.20;;;;;;;;;;5039182;28;20064;-88
2022/07/19 13:58:41;;;;;;;3.40;1.27;;;;;;;;;;5044250;28;20026;-85
2022/07/19 14:01:12;;;;;;;3.63;1.80;;;;;;;;;;5039499;28;20088;-85
2022/07/19 14:03:38;;;;;;;3.13;1.40;;;;;;;;;;5043148;28;20021;-85
2022/07/19 14:06:04;;;;;;;2.60;1.30;;;;;;;;;;5042618;28;20033;-84
2022/07/19 14:08:30;;;;;;;1.50;1.23;;;;;;;;;;5037720;28;20025;-82
2022/07/19 14:10:55;;;;;;;2.15;1.40;;;;;;;;;;5039461;28;20040;-83
2022/07/19 14:13:20;;;;;;;2.08;1.33;;;;;;;;;;5033437;28;20028;-85
2022/07/19 14:15:46;;;;;;;1.42;1.15;;;;;;;;;;5041224;28;20020;-84
2022/07/19 14:18:12;;;;;;;2.80;1.58;;;;;;;;;;5037403;28;20492;-87
2022/07/19 14:20:41;;;;;;;2.33;1.20;;;;;;;;;;5038165;28;20048;-86
2022/07/19 14:23:09;;;;;;;2.17;1.45;;;;;;;;;;5033399;28;20386;-86
2022/07/19 14:25:35;;;;;;;2.05;1.40;;;;;;;;;;5039458;28;20040;-87
2022/07/19 14:28:00;;;;;;;4.65;1.48;;;;;;;;;;5041640;28;20392;-85
2022/07/19 14:30:26;;;;;;;5.85;1.45;;;;;;;;;;5045261;28;20036;-85
2022/07/19 14:32:51;;;;;;;1.65;1.27;;;;;;;;;;5036957;28;20027;-84
2022/07/19 14:35:17;;;;;;;1.25;1.00;;;;;;;;;;5040068;28;20021;-86
2022/07/19 14:37:44;;;;;;;4.35;1.60;;;;;;;;;;5042941;28;20064;-87
2022/07/19 14:40:11;;;;;;;3.22;1.20;;;;;;;;;;5043256;28;20061;-86
2022/07/19 14:42:37;;;;;;;2.05;1.33;;;;;;;;;;5038551;28;20037;-87
2022/07/19 14:45:03;;;;;;;4.63;1.60;;;;;;;;;;5040419;28;20394;-86
2022/07/19 14:47:29;;;;;;;6.43;1.60;;;;;;;;;;5037905;28;20037;-86